Time;durP1;ratioP1;P1;durP2;ratioP2;P2;SDS_P1;SDS_P2;PMS_P1;PMS_P2;Temp;Humidity;BMP_temperature;BMP_pressure;BME280_temperature;BME280_humidity;BME280_pressure;Samples;Min_cycle;Max_cycle;Signal;HPM_P1;HPM_P2
2022/05/28 00:00:53;;;;;;;12.40;3.63;;;;;;;9.20;75.88;102173.47;5034015;28;20034;-80
2022/05/28 00:03:19;;;;;;;14.55;3.42;;;;;;;9.34;75.96;102197.03;5033747;28;20473;-78
2022/05/28 00:05:44;;;;;;;14.13;3.63;;;;;;;9.34;75.93;102191.91;5033835;28;20065;-81
2022/05/28 00:08:10;;;;;;;13.48;3.83;;;;;;;9.37;75.79;102193.50;5033996;28;20032;-80
2022/05/28 00:10:36;;;;;;;9.80;2.90;;;;;;;9.35;75.93;102172.09;5033883;28;20477;-79
2022/05/28 00:13:02;;;;;;;16.20;3.90;;;;;;;9.51;75.99;102180.94;5033595;28;20489;-78
2022/05/28 00:15:28;;;;;;;12.70;3.78;;;;;;;9.60;75.93;102175.44;5033904;28;20359;-79
2022/05/28 00:17:53;;;;;;;12.13;3.72;;;;;;;9.70;75.12;102176.78;5016061;28;20037;-84
2022/05/28 00:20:19;;;;;;;14.60;3.45;;;;;;;9.62;74.98;102154.75;5033817;28;20029;-80
2022/05/28 00:22:44;;;;;;;12.23;3.60;;;;;;;9.65;74.95;102159.81;5033684;28;20139;-78
2022/05/28 00:25:13;;;;;;;12.85;3.97;;;;;;;9.74;74.86;102178.38;5033992;28;20180;-79
2022/05/28 00:27:38;;;;;;;11.93;3.33;;;;;;;9.59;75.37;102170.34;5033697;28;20040;-79
2022/05/28 00:30:05;;;;;;;12.95;3.70;;;;;;;9.58;75.82;102177.25;5033527;28;20029;-79
2022/05/28 00:32:31;;;;;;;12.32;4.30;;;;;;;9.53;75.89;102178.31;5033422;28;20044;-79
2022/05/28 00:34:56;;;;;;;12.90;4.38;;;;;;;9.51;76.20;102177.53;5032897;28;20026;-80
2022/05/28 00:37:22;;;;;;;15.43;3.97;;;;;;;9.37;76.46;102149.69;5033353;28;20413;-83
2022/05/28 00:39:47;;;;;;;14.45;4.32;;;;;;;9.43;76.32;102155.44;5033349;28;20362;-79
2022/05/28 00:42:13;;;;;;;14.45;4.57;;;;;;;9.42;76.42;102158.91;5033243;28;20079;-90
2022/05/28 00:44:38;;;;;;;10.50;4.07;;;;;;;9.52;76.19;102163.72;5033192;28;20026;-79
2022/05/28 00:47:04;;;;;;;11.35;3.97;;;;;;;9.62;76.10;102168.50;5032833;28;20025;-79
2022/05/28 00:49:32;;;;;;;15.52;4.10;;;;;;;9.67;76.08;102168.34;5015540;28;20038;-81
2022/05/28 00:52:00;;;;;;;12.77;3.95;;;;;;;9.70;76.16;102163.88;5033509;28;20022;-80
2022/05/28 00:54:29;;;;;;;13.38;3.90;;;;;;;9.58;76.08;102143.72;5033090;28;20025;-80
2022/05/28 00:56:56;;;;;;;15.88;4.93;;;;;;;9.71;76.24;102169.88;5033226;28;20105;-79
2022/05/28 00:59:22;;;;;;;15.20;3.97;;;;;;;9.53;76.37;102143.03;5032904;28;20382;-80
2022/05/28 01:01:48;;;;;;;15.27;4.30;;;;;;;9.55;76.58;102149.00;5032672;28;20018;-80
2022/05/28 01:04:33;;;;;;;16.05;4.63;;;;;;;9.57;76.79;102167.00;5033137;28;20420;-79
2022/05/28 01:07:07;;;;;;;11.93;3.92;;;;;;;9.49;77.37;102160.38;5032714;28;20026;-80
2022/05/28 01:09:52;;;;;;;15.90;4.50;;;;;;;9.45;77.39;102158.81;5033502;28;20095;-85
2022/05/28 01:12:28;;;;;;;11.63;3.83;;;;;;;9.44;77.84;102154.56;5032683;28;20040;-79
2022/05/28 01:15:10;;;;;;;14.10;3.90;;;;;;;9.40;77.93;102155.56;5032579;28;20030;-80
2022/05/28 01:17:49;;;;;;;16.30;3.67;;;;;;;9.36;78.08;102154.00;5032798;28;20470;-77
2022/05/28 01:20:26;;;;;;;19.70;4.80;;;;;;;9.28;78.50;102156.00;5032772;28;20034;-80
2022/05/28 01:23:26;;;;;;;11.52;4.25;;;;;;;9.24;78.71;102148.44;5032507;28;20022;-79
2022/05/28 01:26:12;;;;;;;14.18;4.35;;;;;;;9.14;79.12;102150.50;5032733;28;20033;-79
2022/05/28 01:28:45;;;;;;;14.05;4.90;;;;;;;9.11;79.64;102153.19;5032810;28;20037;-80
2022/05/28 01:31:13;;;;;;;13.05;4.63;;;;;;;9.06;79.83;102155.09;5032544;28;20025;-79
2022/05/28 01:33:44;;;;;;;13.52;5.00;;;;;;;9.02;80.17;102158.66;5014979;28;20037;-79
2022/05/28 01:36:13;;;;;;;13.57;4.40;;;;;;;8.95;80.48;102158.06;5032469;28;20026;-78
2022/05/28 01:38:40;;;;;;;12.48;4.30;;;;;;;8.87;80.78;102155.75;5032528;28;20045;-79
2022/05/28 01:41:07;;;;;;;16.13;4.35;;;;;;;8.84;80.94;102155.81;5032673;28;20029;-78
2022/05/28 01:43:40;;;;;;;14.02;5.40;;;;;;;8.81;81.31;102149.97;5032485;28;20029;-79
2022/05/28 01:46:06;;;;;;;13.95;4.65;;;;;;;8.76;81.36;102152.72;5035613;28;20674;-79
2022/05/28 01:48:33;;;;;;;13.95;4.78;;;;;;;8.52;81.71;102120.03;5036538;28;20066;-79
2022/05/28 01:51:01;;;;;;;13.07;4.68;;;;;;;8.47;81.92;102130.50;5036377;28;20033;-80
2022/05/28 01:56:12;;;;;;;13.80;5.13;;;;;;;8.48;82.44;102154.53;5036382;28;20481;-78
2022/05/28 01:58:38;;;;;;;15.43;4.60;;;;;;;8.43;82.88;102149.50;5036409;28;20025;-78
2022/05/28 02:01:06;;;;;;;17.52;4.40;;;;;;;8.29;83.42;102131.09;5036175;28;20097;-78
2022/05/28 02:03:34;;;;;;;13.63;4.18;;;;;;;8.41;83.48;102156.44;5036118;28;20041;-78
2022/05/28 02:05:59;;;;;;;15.10;4.45;;;;;;;8.17;83.58;102127.19;5036274;28;20025;-79
2022/05/28 02:08:28;;;;;;;15.55;4.80;;;;;;;8.02;83.68;102101.94;5036118;28;20457;-78
2022/05/28 02:11:05;;;;;;;15.88;5.07;;;;;;;8.33;84.05;102154.06;5036077;28;20101;-78
2022/05/28 02:13:43;;;;;;;12.07;4.60;;;;;;;8.33;83.95;102154.06;5036376;28;20112;-80
2022/05/28 02:16:16;;;;;;;13.75;4.63;;;;;;;7.96;84.24;102094.38;5036249;28;20052;-78
2022/05/28 02:18:49;;;;;;;13.45;4.82;;;;;;;8.27;84.50;102146.56;5036304;28;20025;-78
2022/05/28 02:21:33;;;;;;;13.25;5.00;;;;;;;8.21;84.53;102146.75;5035890;28;20033;-77
2022/05/28 02:24:05;;;;;;;14.68;4.80;;;;;;;8.23;85.07;102149.28;5036366;28;20030;-78
2022/05/28 02:26:37;;;;;;;14.02;4.70;;;;;;;8.18;85.21;102146.88;5036613;28;20381;-78
2022/05/28 02:29:04;;;;;;;13.15;4.60;;;;;;;8.18;85.42;102139.16;5036048;28;20029;-89
2022/05/28 02:31:32;;;;;;;11.55;4.10;;;;;;;7.87;85.59;102099.84;5018357;28;20524;-77
2022/05/28 02:33:58;;;;;;;13.60;4.45;;;;;;;7.79;85.70;102086.38;5036300;28;20072;-81
2022/05/28 02:36:24;;;;;;;14.45;4.88;;;;;;;7.65;85.25;102067.06;5017564;28;20033;-78
2022/05/28 02:38:50;;;;;;;12.55;4.53;;;;;;;8.12;85.97;102139.34;5035876;28;20037;-80
2022/05/28 02:41:17;;;;;;;15.02;4.50;;;;;;;7.90;86.67;102098.03;5018158;28;20112;-78
2022/05/28 02:43:42;;;;;;;16.55;4.93;;;;;;;7.91;87.08;102097.13;5018103;28;20029;-86
2022/05/28 02:46:08;;;;;;;12.70;4.15;;;;;;;7.82;86.68;102083.72;5017932;28;20087;-78
2022/05/28 02:48:34;;;;;;;11.93;5.25;;;;;;;8.02;87.54;102114.78;5017382;28;20025;-78
2022/05/28 02:51:04;;;;;;;12.13;4.22;;;;;;;7.93;87.78;102081.63;5035403;28;20029;-78
2022/05/28 02:53:30;;;;;;;15.68;4.75;;;;;;;8.09;87.80;102116.28;5035617;28;20025;-78
2022/05/28 02:55:55;;;;;;;13.48;4.43;;;;;;;8.04;87.87;102108.69;5035286;28;20036;-78
2022/05/28 02:58:20;;;;;;;12.60;4.10;;;;;;;8.06;88.00;102126.66;5035588;28;20116;-83
2022/05/28 03:00:45;;;;;;;17.58;4.57;;;;;;;8.04;88.00;102123.28;5035522;28;20100;-78
2022/05/28 03:03:11;;;;;;;11.90;4.43;;;;;;;8.02;88.28;102127.66;5035310;28;20517;-79
2022/05/28 03:05:36;;;;;;;13.13;4.57;;;;;;;7.97;88.69;102122.66;5035357;28;20163;-85
2022/05/28 03:08:01;;;;;;;15.32;4.95;;;;;;;7.82;88.74;102102.56;5035150;28;20056;-78
2022/05/28 03:10:27;;;;;;;17.85;5.00;;;;;;;7.94;88.85;102127.03;5000678;28;20393;-78
2022/05/28 03:12:52;;;;;;;14.63;4.90;;;;;;;7.94;89.26;102129.63;5035057;28;20034;-78
2022/05/28 03:15:18;;;;;;;15.23;4.70;;;;;;;7.90;89.44;102128.03;5034771;28;20024;-79
2022/05/28 03:17:43;;;;;;;13.77;4.13;;;;;;;7.59;90.09;102090.41;5034681;28;20374;-79
2022/05/28 03:20:09;;;;;;;11.65;4.63;;;;;;;7.89;89.75;102129.78;5034986;28;20033;-78
2022/05/28 03:22:34;;;;;;;13.73;4.70;;;;;;;7.68;90.49;102095.28;5034612;28;20373;-79
2022/05/28 03:25:00;;;;;;;15.60;5.22;;;;;;;7.89;90.44;102126.34;5034767;28;20025;-79
2022/05/28 03:27:25;;;;;;;14.38;4.60;;;;;;;7.89;90.73;102126.34;5034804;28;20062;-78
2022/05/28 03:29:50;;;;;;;16.13;5.05;;;;;;;7.98;90.94;102136.38;5016491;28;20045;-83
2022/05/28 03:32:16;;;;;;;13.50;4.32;;;;;;;7.69;90.62;102094.38;5034516;28;20029;-79
2022/05/28 03:34:41;;;;;;;15.32;4.15;;;;;;;7.98;91.48;102139.78;5034606;28;20029;-79
2022/05/28 03:37:06;;;;;;;14.07;4.55;;;;;;;8.01;91.86;102146.56;5034274;28;20375;-80
2022/05/28 03:39:32;;;;;;;13.30;4.30;;;;;;;8.08;92.28;102145.47;5034403;28;20025;-79
2022/05/28 03:41:57;;;;;;;13.10;4.38;;;;;;;8.13;92.36;102145.31;5034272;28;20036;-78
2022/05/28 03:44:22;;;;;;;14.20;4.47;;;;;;;8.17;92.23;102152.91;5034625;28;20022;-89
2022/05/28 03:46:48;;;;;;;12.52;4.55;;;;;;;7.96;92.40;102102.09;5034325;28;20420;-78
2022/05/28 03:49:27;;;;;;;10.93;4.10;;;;;;;8.22;92.12;102140.72;5034185;28;20040;-79
2022/05/28 03:51:52;;;;;;;15.38;5.20;;;;;;;8.27;92.00;102138.84;5033972;28;20018;-79
2022/05/28 03:54:18;;;;;;;15.73;4.38;;;;;;;8.07;91.92;102104.38;5034515;28;20018;-78
2022/05/28 03:56:45;;;;;;;14.68;5.50;;;;;;;8.02;92.01;102087.34;5033927;28;20092;-78
2022/05/28 03:59:10;;;;;;;10.73;3.85;;;;;;;8.34;92.07;102137.78;5034208;28;20427;-79
2022/05/28 04:01:37;;;;;;;13.20;4.00;;;;;;;8.38;91.84;102138.53;5033886;28;20053;-80
2022/05/28 04:04:03;;;;;;;16.63;4.47;;;;;;;8.48;91.84;102151.94;5033905;28;20469;-81
2022/05/28 04:06:29;;;;;;;13.70;4.28;;;;;;;8.53;92.07;102153.47;5034011;28;20025;-79
2022/05/28 04:08:55;;;;;;;13.25;3.90;;;;;;;8.56;91.81;102145.66;5032884;28;20025;-80
2022/05/28 04:11:20;;;;;;;13.55;4.45;;;;;;;8.64;91.71;102153.09;5033806;28;20029;-79
2022/05/28 04:13:46;;;;;;;16.15;3.88;;;;;;;8.65;91.62;102138.50;5033877;28;20069;-78
2022/05/28 04:16:13;;;;;;;12.98;3.67;;;;;;;8.75;91.47;102139.84;5034239;28;20091;-78
2022/05/28 04:18:40;;;;;;;10.85;3.67;;;;;;;8.90;91.23;102158.22;5033752;28;20076;-81
2022/05/28 04:21:06;;;;;;;13.57;4.00;;;;;;;8.91;91.00;102152.16;5033679;28;20034;-79
2022/05/28 04:23:31;;;;;;;14.38;3.45;;;;;;;9.10;90.83;102159.25;5033395;28;20029;-78
2022/05/28 04:25:56;;;;;;;10.02;2.88;;;;;;;9.23;90.91;102155.31;5033488;28;20044;-79
2022/05/28 04:28:21;;;;;;;10.90;3.08;;;;;;;9.22;90.20;102140.75;5033694;28;20021;-81
2022/05/28 04:30:47;;;;;;;13.10;3.47;;;;;;;9.46;89.72;102159.66;5033446;28;20108;-79
2022/05/28 04:33:12;;;;;;;12.82;3.30;;;;;;;9.64;89.40;102160.72;5035328;28;20053;-79
2022/05/28 04:35:38;;;;;;;12.88;3.55;;;;;;;9.61;88.74;102122.97;5033521;28;20022;-85
2022/05/28 04:38:03;;;;;;;15.93;3.10;;;;;;;10.10;87.37;102167.50;5033323;28;20060;-86
2022/05/28 04:40:29;;;;;;;14.48;3.60;;;;;;;9.82;86.90;102113.56;5015898;28;20037;-79
2022/05/28 04:42:54;;;;;;;16.38;3.22;;;;;;;10.19;87.23;102174.03;5034022;28;20075;-80
2022/05/28 04:45:19;;;;;;;13.05;3.50;;;;;;;9.98;86.68;102129.28;5033446;28;20021;-86
2022/05/28 04:47:45;;;;;;;13.30;2.78;;;;;;;10.05;86.74;102144.47;5033641;28;20474;-79
2022/05/28 04:50:11;;;;;;;11.63;2.78;;;;;;;10.24;86.99;102172.16;5034227;28;20048;-79
2022/05/28 04:52:38;;;;;;;11.43;2.78;;;;;;;9.78;86.63;102084.47;5034437;28;20022;-79
2022/05/28 04:55:05;;;;;;;10.60;2.88;;;;;;;10.03;86.35;102127.38;5034635;28;20029;-85
2022/05/28 04:57:30;;;;;;;7.25;1.83;;;;;;;10.06;85.72;102120.34;5035203;28;20151;-87
2022/05/28 04:59:56;;;;;;;14.18;2.17;;;;;;;10.11;85.09;102109.81;5017161;28;20060;-79
2022/05/28 05:02:21;;;;;;;11.50;2.85;;;;;;;10.98;83.64;102173.34;5032826;28;20033;-79
2022/05/28 05:04:46;;;;;;;11.77;2.13;;;;;;;12.66;79.02;102170.69;5033089;28;20421;-79
2022/05/28 05:07:12;;;;;;;11.23;2.70;;;;;;;14.15;69.98;102151.47;5033019;28;20022;-79
2022/05/28 05:09:37;;;;;;;9.18;2.45;;;;;;;15.63;64.71;102173.00;5032829;28;20021;-80
2022/05/28 05:12:03;;;;;;;7.13;1.98;;;;;;;16.47;60.58;102123.25;5033093;28;20392;-79
2022/05/28 05:14:28;;;;;;;9.90;2.00;;;;;;;17.84;57.51;102181.56;5032467;28;20465;-80
2022/05/28 05:16:53;;;;;;;9.20;1.60;;;;;;;18.46;54.38;102181.34;5032870;28;20112;-78
2022/05/28 05:19:19;;;;;;;9.35;1.67;;;;;;;18.67;51.80;102176.28;5032469;28;20029;-80
2022/05/28 05:21:44;;;;;;;9.10;1.35;;;;;;;19.18;50.88;102166.25;5032881;28;20029;-78
2022/05/28 05:24:13;;;;;;;10.20;2.25;;;;;;;19.89;49.42;102168.50;5033190;28;20029;-79
2022/05/28 05:26:38;;;;;;;11.48;1.77;;;;;;;19.87;47.07;102149.47;5032785;28;20023;-79
2022/05/28 05:29:04;;;;;;;9.48;1.88;;;;;;;20.19;47.20;102176.50;5034856;28;20030;-79
2022/05/28 05:31:29;;;;;;;8.32;1.40;;;;;;;20.77;45.84;102147.19;5035626;28;20022;-82
2022/05/28 05:33:54;;;;;;;8.77;1.55;;;;;;;21.53;42.92;102185.22;5034768;28;20076;-80
2022/05/28 05:36:20;;;;;;;7.22;1.42;;;;;;;20.90;43.95;102155.69;5034654;28;20105;-79
2022/05/28 05:38:45;;;;;;;4.72;1.10;;;;;;;21.50;42.73;102185.50;5033809;28;20071;-88
2022/05/28 05:41:10;;;;;;;9.98;1.83;;;;;;;21.37;42.92;102183.13;5033341;28;20029;-80
2022/05/28 05:43:36;;;;;;;6.63;1.52;;;;;;;21.32;41.82;102193.19;5032722;28;20029;-78
2022/05/28 05:46:02;;;;;;;8.18;1.30;;;;;;;21.32;41.59;102187.94;5015082;28;20032;-80
2022/05/28 05:48:29;;;;;;;7.78;1.48;;;;;;;21.82;41.78;102179.19;5032519;28;20028;-78
2022/05/28 05:50:55;;;;;;;5.60;1.50;;;;;;;22.09;39.79;102168.00;5032876;28;20068;-78
2022/05/28 05:53:20;;;;;;;7.25;1.55;;;;;;;22.03;40.53;102193.06;5032644;28;20504;-79
2022/05/28 05:55:46;;;;;;;9.50;1.60;;;;;;;22.22;39.51;102166.78;5032302;28;20036;-80
2022/05/28 05:58:12;;;;;;;5.35;1.20;;;;;;;22.58;38.93;102195.94;5032772;28;20057;-79
2022/05/28 06:00:39;;;;;;;6.38;1.40;;;;;;;21.59;38.88;102132.13;5032609;28;20017;-78
2022/05/28 06:03:06;;;;;;;7.82;1.35;;;;;;;21.52;40.14;102182.72;5032312;28;20061;-78
2022/05/28 06:05:32;;;;;;;5.68;1.20;;;;;;;21.31;40.09;102144.22;5032329;28;20523;-79
2022/05/28 06:07:58;;;;;;;6.15;1.33;;;;;;;22.45;38.82;102198.06;5032126;28;20017;-78
2022/05/28 06:10:24;;;;;;;7.45;1.55;;;;;;;21.74;37.70;102161.47;5032239;28;20398;-76
2022/05/28 06:12:49;;;;;;;5.10;1.30;;;;;;;22.02;38.08;102202.75;5032149;28;20037;-78
2022/05/28 06:15:15;;;;;;;6.20;1.05;;;;;;;22.27;37.35;102203.19;5032221;28;20025;-77
2022/05/28 06:17:40;;;;;;;4.45;1.10;;;;;;;22.82;36.32;102169.13;5032547;28;20045;-80
2022/05/28 06:20:11;;;;;;;7.03;1.30;;;;;;;22.86;36.02;102165.25;5032941;28;20457;-77
2022/05/28 06:22:37;;;;;;;6.15;1.50;;;;;;;23.33;35.25;102188.91;5032542;28;20107;-77
2022/05/28 06:25:03;;;;;;;9.40;1.40;;;;;;;22.55;35.93;102190.97;5032129;28;20071;-78
2022/05/28 06:27:29;;;;;;;4.35;1.02;;;;;;;22.90;35.64;102172.72;5032244;28;20018;-79
2022/05/28 06:29:54;;;;;;;8.60;1.40;;;;;;;23.46;34.64;102206.03;5032106;28;20480;-78
2022/05/28 06:32:19;;;;;;;5.18;0.90;;;;;;;23.37;34.29;102183.19;5034737;28;20035;-80
2022/05/28 06:34:45;;;;;;;5.85;1.27;;;;;;;23.72;33.59;102208.84;5035589;28;20032;-79
2022/05/28 06:37:12;;;;;;;6.07;1.25;;;;;;;23.66;34.03;102208.59;5035831;28;20060;-81
2022/05/28 06:39:38;;;;;;;5.68;1.08;;;;;;;23.07;33.29;102208.03;5035835;28;20032;-80
2022/05/28 06:42:03;;;;;;;6.35;0.93;;;;;;;22.66;34.39;102216.31;5035519;28;20105;-80
2022/05/28 06:44:29;;;;;;;5.53;0.90;;;;;;;23.23;34.48;102217.97;5036668;28;20100;-80
2022/05/28 06:46:55;;;;;;;5.35;1.17;;;;;;;23.69;32.70;102206.47;5035746;28;20033;-78
2022/05/28 06:49:20;;;;;;;4.47;1.38;;;;;;;23.42;33.39;102172.22;4991587;23;20058;-78
2022/05/28 06:51:45;;;;;;;5.38;0.93;;;;;;;24.31;32.20;102217.16;4959445;28;20033;-79
2022/05/28 06:54:11;;;;;;;4.30;0.90;;;;;;;24.53;30.53;102215.84;4976573;28;20027;-80
2022/05/28 06:56:36;;;;;;;5.70;1.33;;;;;;;23.84;30.78;102217.34;4976425;28;20425;-81
2022/05/28 06:59:02;;;;;;;5.68;1.27;;;;;;;22.38;33.93;102225.91;4959036;28;20457;-80
2022/05/28 07:01:28;;;;;;;5.55;1.10;;;;;;;21.99;34.12;102221.44;4976546;28;20031;-79
2022/05/28 07:03:58;;;;;;;4.10;1.30;;;;;;;21.55;34.73;102219.28;4976279;28;20037;-80
2022/05/28 07:06:24;;;;;;;3.25;0.90;;;;;;;20.39;34.60;102100.53;4976177;28;20463;-82
2022/05/28 07:08:49;;;;;;;3.50;1.00;;;;;;;21.69;35.80;102214.47;4976226;28;20078;-79
2022/05/28 07:11:15;;;;;;;7.70;1.23;;;;;;;22.74;33.30;102185.66;4976304;28;20037;-82
2022/05/28 07:13:41;;;;;;;4.85;1.38;;;;;;;23.19;32.59;102217.41;4976072;28;20029;-80
2022/05/28 07:16:08;;;;;;;5.78;1.10;;;;;;;23.11;32.16;102196.25;4976297;28;20074;-80
2022/05/28 07:18:35;;;;;;;4.55;1.40;;;;;;;23.16;32.96;102166.81;4976564;28;20411;-79
2022/05/28 07:21:00;;;;;;;3.05;0.82;;;;;;;24.48;32.00;102176.69;4975901;28;20086;-79
2022/05/28 07:23:27;;;;;;;4.57;1.10;;;;;;;24.82;29.86;102218.16;4976049;28;20030;-80
2022/05/28 07:26:13;;;;;;;4.82;1.05;;;;;;;22.89;32.12;102226.38;4975940;28;20027;-82
2022/05/28 07:28:40;;;;;;;5.47;1.30;;;;;;;21.20;33.69;102223.13;4976148;28;20135;-80
2022/05/28 07:31:26;;;;;;;5.05;1.35;;;;;;;21.86;33.98;102226.13;4975910;28;20839;-79
2022/05/28 07:33:51;;;;;;;6.45;1.50;;;;;;;21.82;33.32;102227.34;4975431;28;20074;-80
2022/05/28 07:36:22;;;;;;;4.93;1.10;;;;;;;20.57;35.33;102228.47;4975616;28;20058;-81
2022/05/28 07:38:48;;;;;;;5.75;1.08;;;;;;;19.07;37.67;102234.28;4975671;28;20023;-80
2022/05/28 07:41:17;;;;;;;6.53;1.30;;;;;;;17.94;40.27;102219.16;4975697;28;20077;-82
2022/05/28 07:43:43;;;;;;;4.90;1.40;;;;;;;17.35;41.10;102225.97;4975876;28;20383;-80
2022/05/28 07:46:17;;;;;;;7.38;1.27;;;;;;;17.01;43.62;102220.47;4975546;28;20027;-80
2022/05/28 07:48:43;;;;;;;4.75;1.10;;;;;;;16.32;43.24;102175.47;4975470;28;20093;-81
2022/05/28 07:51:09;;;;;;;3.90;1.25;;;;;;;16.37;42.22;102231.69;4957564;28;20113;-79
2022/05/28 07:53:34;;;;;;;7.22;1.30;;;;;;;16.10;43.36;102192.59;4975287;28;20085;-83
2022/05/28 07:56:01;;;;;;;5.13;1.08;;;;;;;16.41;44.61;102220.94;4975390;28;20059;-83
2022/05/28 07:58:26;;;;;;;5.55;1.33;;;;;;;16.60;43.47;102229.22;4975646;28;20034;-84
2022/05/28 08:00:52;;;;;;;5.57;1.05;;;;;;;16.64;44.12;102222.06;4975435;28;20034;-81
2022/05/28 08:03:18;;;;;;;6.30;1.40;;;;;;;16.34;44.87;102228.34;4975823;28;20523;-79
2022/05/28 08:05:46;;;;;;;4.70;1.30;;;;;;;16.32;45.30;102227.63;4974728;28;20031;-79
2022/05/28 08:08:12;;;;;;;5.43;1.60;;;;;;;16.56;44.89;102219.13;4974914;28;20050;-79
2022/05/28 08:10:38;;;;;;;8.20;1.67;;;;;;;16.66;45.17;102224.56;4975058;28;20486;-79
2022/05/28 08:13:06;;;;;;;5.50;1.30;;;;;;;16.44;45.76;102220.75;4975125;28;20033;-79
2022/05/28 08:15:34;;;;;;;6.47;1.50;;;;;;;16.42;46.58;102175.72;4975226;28;20023;-81
2022/05/28 08:17:59;;;;;;;5.53;1.27;;;;;;;16.98;44.69;102198.94;4975030;28;20109;-78
2022/05/28 08:23:08;;;;;;;5.82;1.13;;;;;;;17.03;43.95;102230.78;4974822;28;20114;-80
2022/05/28 08:23:10;;;;;;;9.18;1.75;;;;;;;16.92;45.03;102228.91;4974532;28;20432;-81
2022/05/28 08:25:37;;;;;;;7.55;1.48;;;;;;;16.86;45.04;102188.41;4974831;28;20049;-79
2022/05/28 08:28:02;;;;;;;5.88;1.40;;;;;;;17.11;44.05;102220.66;4974920;28;20097;-77
2022/05/28 08:30:28;;;;;;;7.00;1.50;;;;;;;16.76;42.54;102210.00;4974738;28;20169;-81
2022/05/28 08:32:53;;;;;;;6.50;1.48;;;;;;;16.39;43.78;102222.81;4974836;28;20034;-75
2022/05/28 08:35:20;;;;;;;6.38;1.70;;;;;;;16.13;45.16;102226.28;4974642;28;20027;-77
2022/05/28 08:37:45;;;;;;;7.93;1.20;;;;;;;15.77;45.74;102210.28;4974647;28;20094;-77
2022/05/28 08:40:12;;;;;;;4.47;1.10;;;;;;;15.87;46.68;102202.72;4974708;28;20027;-80
2022/05/28 08:42:40;;;;;;;8.38;1.02;;;;;;;15.84;46.42;102196.88;4975579;28;20035;-80
2022/05/28 08:45:06;;;;;;;7.00;1.30;;;;;;;15.71;45.56;102221.06;4974688;28;20046;-87
2022/05/28 08:47:43;;;;;;;7.25;1.35;;;;;;;15.83;45.58;102218.63;4974826;28;20019;-86
2022/05/28 08:50:11;;;;;;;5.43;1.20;;;;;;;15.89;45.24;102231.28;4976001;28;20034;-85
2022/05/28 08:52:45;;;;;;;6.07;1.35;;;;;;;15.91;41.75;102229.41;4977270;28;20030;-86
2022/05/28 08:55:16;;;;;;;6.28;1.27;;;;;;;15.92;43.04;102181.56;4978750;28;20455;-83
2022/05/28 08:58:00;;;;;;;5.82;1.25;;;;;;;15.88;42.53;102178.34;4980059;28;20031;-84
2022/05/28 09:00:43;;;;;;;6.47;1.50;;;;;;;16.11;44.35;102213.34;4977284;28;20030;-89
2022/05/28 09:03:16;;;;;;;6.78;1.45;;;;;;;16.08;45.55;102221.38;4974266;28;20039;-86
2022/05/28 09:05:53;;;;;;;3.90;1.42;;;;;;;16.08;44.48;102216.16;4973862;28;20031;-85
2022/05/28 09:08:27;;;;;;;4.80;1.10;;;;;;;15.97;45.28;102201.19;4957147;28;20463;-82
2022/05/28 09:10:54;;;;;;;3.42;0.90;;;;;;;16.13;44.44;102219.31;4974329;28;20089;-91
2022/05/28 09:13:26;;;;;;;5.93;1.42;;;;;;;16.29;43.65;102199.13;4974127;28;20027;-88
2022/05/28 09:15:54;;;;;;;6.70;1.35;;;;;;;16.55;41.46;102184.38;4975709;28;20538;-79
2022/05/28 09:18:21;;;;;;;5.43;1.20;;;;;;;16.73;40.68;102190.19;4974046;28;20023;-87
2022/05/28 09:20:50;;;;;;;7.22;1.45;;;;;;;16.90;41.24;102220.31;4974105;28;20038;-87
2022/05/28 09:23:15;;;;;;;4.20;1.10;;;;;;;16.84;40.77;102213.75;4973872;28;20035;-88
2022/05/28 09:25:46;;;;;;;3.80;1.20;;;;;;;17.01;41.92;102217.84;4973954;28;20045;-88
2022/05/28 09:28:39;;;;;;;3.67;1.00;;;;;;;16.94;41.07;102227.03;4956150;28;20035;-88
2022/05/28 09:31:50;;;;;;;5.82;1.50;;;;;;;16.93;42.34;102181.00;4974230;28;20081;-87
2022/05/28 09:34:25;;;;;;;;;;;;;;;17.34;41.75;102213.84;4895990;29;20099;-86
2022/05/28 09:37:01;;;;;;;5.50;1.20;;;;;;;17.19;40.38;102215.72;4895497;29;20043;-91
2022/05/28 09:39:36;;;;;;;7.40;1.42;;;;;;;17.32;42.11;102207.91;4894944;29;20521;-78
2022/05/28 09:42:24;;;;;;;6.15;1.20;;;;;;;17.52;41.85;102203.91;4895358;29;20040;-80
2022/05/28 09:45:03;;;;;;;7.13;1.40;;;;;;;17.47;41.89;102206.81;4895273;29;20123;-90
2022/05/28 09:47:29;;;;;;;5.78;1.33;;;;;;;17.11;41.94;102205.84;4895104;29;20033;-84
2022/05/28 09:49:57;;;;;;;8.57;2.30;;;;;;;16.41;41.99;102160.13;4895243;29;20100;-86
2022/05/28 09:54:16;;;;;;;7.25;1.58;;;;;;;16.39;42.39;102214.16;4895119;29;20139;-79
2022/05/28 09:55:23;;;;;;;6.65;1.73;;;;;;;16.07;43.22;102209.28;4895001;29;20540;-81
2022/05/28 09:57:57;;;;;;;6.45;1.25;;;;;;;16.33;43.37;102197.16;4896396;29;20063;-80
2022/05/28 10:00:23;;;;;;;8.02;1.30;;;;;;;17.11;40.84;102197.19;4896644;29;20120;-81
2022/05/28 10:05:50;;;;;;;7.63;1.30;;;;;;;17.62;41.22;102210.16;4945202;28;20106;-91
2022/05/28 10:08:16;;;;;;;9.45;1.55;;;;;;;17.62;40.35;102204.91;4958485;29;20114;-82
2022/05/28 10:10:41;;;;;;;6.22;1.30;;;;;;;17.09;41.96;102176.38;4959814;29;20061;-90
2022/05/28 10:13:18;;;;;;;9.15;1.95;;;;;;;16.96;40.72;102201.66;4942144;29;20030;-89
2022/05/28 10:15:49;;;;;;;6.00;1.20;;;;;;;16.83;39.13;102200.81;4959371;29;20023;-91
2022/05/28 10:18:25;;;;;;;5.40;1.45;;;;;;;16.96;38.50;102191.22;4961134;29;20526;-84
2022/05/28 10:21:12;;;;;;;6.03;1.20;;;;;;;17.16;38.97;102197.69;4958824;28;20119;-75
2022/05/28 10:23:40;;;;;;;4.10;1.00;;;;;;;17.23;37.70;102198.94;4977691;28;20046;-88
2022/05/28 10:26:14;;;;;;;3.55;1.10;;;;;;;17.33;37.83;102207.78;4977618;28;20078;-87
2022/05/28 10:28:51;;;;;;;6.20;1.35;;;;;;;17.40;38.99;102185.53;4978155;28;20030;-86
2022/05/28 10:31:27;;;;;;;5.35;1.35;;;;;;;17.58;40.97;102187.78;4952997;29;20035;-86
2022/05/28 10:33:52;;;;;;;5.15;1.05;;;;;;;17.59;38.68;102189.44;4957287;29;20083;-82
2022/05/28 10:36:23;;;;;;;7.38;1.58;;;;;;;17.52;39.57;102188.22;4957588;29;20019;-84
2022/05/28 10:38:48;;;;;;;7.30;1.57;;;;;;;17.62;39.13;102192.69;4957598;29;20499;-84
2022/05/28 10:41:25;;;;;;;4.88;1.40;;;;;;;17.39;38.58;102172.56;4957779;29;20283;-90
2022/05/28 10:43:50;;;;;;;9.18;1.60;;;;;;;17.59;37.84;102192.88;4939883;29;20554;-86
2022/05/28 10:46:34;;;;;;;4.72;1.27;;;;;;;17.70;39.48;102186.97;4957744;29;20066;-82
2022/05/28 10:49:08;;;;;;;6.28;1.40;;;;;;;17.64;38.52;102176.91;4970703;28;20074;-84
2022/05/28 10:51:33;;;;;;;8.35;1.60;;;;;;;17.51;38.79;102179.56;4976495;28;20035;-83
2022/05/28 10:54:09;;;;;;;7.15;1.50;;;;;;;17.53;40.92;102187.28;4976430;28;20062;-81
2022/05/28 10:57:01;;;;;;;8.15;1.90;;;;;;;17.00;40.18;102155.28;4976648;28;20049;-91
2022/05/28 10:59:51;;;;;;;6.22;1.50;;;;;;;17.00;40.90;102192.66;4976541;28;20034;-86
2022/05/28 11:02:20;;;;;;;8.13;1.60;;;;;;;17.14;40.03;102176.91;4976556;28;20027;-85
2022/05/28 11:04:48;;;;;;;7.35;1.52;;;;;;;17.64;41.25;102182.97;4976464;28;20042;-81
2022/05/28 11:07:51;;;;;;;9.48;1.98;;;;;;;17.89;39.80;102184.66;4976430;28;20035;-90
2022/05/28 11:10:16;;;;;;;5.35;1.20;;;;;;;17.74;37.79;102183.16;4976440;28;20086;-93
2022/05/28 11:13:22;;;;;;;5.30;1.13;;;;;;;17.43;37.32;102185.31;4976224;28;20035;-85
2022/05/28 11:15:53;;;;;;;4.93;0.95;;;;;;;16.84;38.21;102113.78;4959483;28;20027;-93
2022/05/28 11:18:25;;;;;;;6.35;1.58;;;;;;;17.30;38.62;102173.22;4975981;28;20075;-80
2022/05/28 11:21:09;;;;;;;7.32;1.30;;;;;;;17.04;37.88;102182.88;4976447;28;20566;-79
2022/05/28 11:23:46;;;;;;;5.20;1.35;;;;;;;17.05;39.03;102176.69;4958209;28;20042;-81
2022/05/28 11:26:20;;;;;;;6.35;1.85;;;;;;;17.29;38.75;102167.16;4975702;28;20494;-84
2022/05/28 11:29:01;;;;;;;8.13;1.60;;;;;;;17.55;39.34;102141.81;4975957;28;20505;-80
2022/05/28 11:31:56;;;;;;;4.30;1.33;;;;;;;17.63;38.81;102139.50;4975748;28;20069;-81
2022/05/28 11:34:25;;;;;;;4.78;1.17;;;;;;;17.95;36.49;102175.56;4976057;28;20124;-77
2022/05/28 11:37:01;;;;;;;5.35;1.13;;;;;;;18.13;37.03;102173.38;4975795;28;20147;-77
2022/05/28 11:39:40;;;;;;;7.70;1.35;;;;;;;18.18;35.60;102163.41;4975215;28;20034;-79